sensor_id;sensor_type;location;lat;lon;timestamp;temperature;humidity
37594;DHT22;23441;50.856;6.076;2023-05-08T00:00:57;15.20;99.90
37594;DHT22;23441;50.856;6.076;2023-05-08T00:03:25;15.10;99.90
37594;DHT22;23441;50.856;6.076;2023-05-08T00:05:51;15.10;99.90
37594;DHT22;23441;50.856;6.076;2023-05-08T00:08:19;15.10;99.90
37594;DHT22;23441;50.856;6.076;2023-05-08T00:10:45;15.10;99.90
37594;DHT22;23441;50.856;6.076;2023-05-08T00:13:10;15.10;99.90
37594;DHT22;23441;50.856;6.076;2023-05-08T00:15:36;15.10;99.90
37594;DHT22;23441;50.856;6.076;2023-05-08T00:18:02;15.10;99.90
37594;DHT22;23441;50.856;6.076;2023-05-08T00:20:27;15.10;99.90
37594;DHT22;23441;50.856;6.076;2023-05-08T00:22:53;15.10;99.90
37594;DHT22;23441;50.856;6.076;2023-05-08T00:25:19;15.10;99.90
37594;DHT22;23441;50.856;6.076;2023-05-08T00:27:44;15.10;99.90
37594;DHT22;23441;50.856;6.076;2023-05-08T00:30:10;15.00;99.90
37594;DHT22;23441;50.856;6.076;2023-05-08T00:32:36;15.00;99.90
37594;DHT22;23441;50.856;6.076;2023-05-08T00:35:02;15.00;99.90
37594;DHT22;23441;50.856;6.076;2023-05-08T00:37:27;15.00;99.90
37594;DHT22;23441;50.856;6.076;2023-05-08T00:39:53;14.90;99.90
37594;DHT22;23441;50.856;6.076;2023-05-08T00:42:18;14.90;99.90
37594;DHT22;23441;50.856;6.076;2023-05-08T00:44:44;14.80;99.90
37594;DHT22;23441;50.856;6.076;2023-05-08T00:47:10;14.70;99.90
37594;DHT22;23441;50.856;6.076;2023-05-08T00:49:37;14.70;99.90
37594;DHT22;23441;50.856;6.076;2023-05-08T00:52:03;14.60;99.90
37594;DHT22;23441;50.856;6.076;2023-05-08T00:54:34;14.60;99.90
37594;DHT22;23441;50.856;6.076;2023-05-08T00:56:59;14.50;99.90
37594;DHT22;23441;50.856;6.076;2023-05-08T00:59:26;14.50;99.90
37594;DHT22;23441;50.856;6.076;2023-05-08T01:01:52;14.40;99.90
37594;DHT22;23441;50.856;6.076;2023-05-08T01:04:20;14.40;99.90
37594;DHT22;23441;50.856;6.076;2023-05-08T01:06:49;14.50;99.90
37594;DHT22;23441;50.856;6.076;2023-05-08T01:09:14;14.50;99.90
37594;DHT22;23441;50.856;6.076;2023-05-08T01:11:43;14.40;99.90
37594;DHT22;23441;50.856;6.076;2023-05-08T01:17:20;14.30;99.90
37594;DHT22;23441;50.856;6.076;2023-05-08T01:27:46;14.10;99.90
37594;DHT22;23441;50.856;6.076;2023-05-08T01:33:23;14.10;99.90
37594;DHT22;23441;50.856;6.076;2023-05-08T01:38:46;14.10;99.90
37594;DHT22;23441;50.856;6.076;2023-05-08T01:41:15;14.10;99.90
37594;DHT22;23441;50.856;6.076;2023-05-08T01:46:13;14.20;99.90
37594;DHT22;23441;50.856;6.076;2023-05-08T01:48:49;14.10;99.90
37594;DHT22;23441;50.856;6.076;2023-05-08T01:51:22;14.20;99.90
37594;DHT22;23441;50.856;6.076;2023-05-08T01:53:56;14.10;99.90
37594;DHT22;23441;50.856;6.076;2023-05-08T01:56:27;14.00;99.90
37594;DHT22;23441;50.856;6.076;2023-05-08T01:58:56;14.00;99.90
37594;DHT22;23441;50.856;6.076;2023-05-08T02:01:24;14.00;99.90
37594;DHT22;23441;50.856;6.076;2023-05-08T02:03:51;14.00;99.90
37594;DHT22;23441;50.856;6.076;2023-05-08T02:06:22;14.00;99.90
37594;DHT22;23441;50.856;6.076;2023-05-08T02:08:49;14.00;99.90
37594;DHT22;23441;50.856;6.076;2023-05-08T02:11:17;14.00;99.90
37594;DHT22;23441;50.856;6.076;2023-05-08T02:13:46;13.90;99.90
37594;DHT22;23441;50.856;6.076;2023-05-08T02:16:13;13.90;99.90
37594;DHT22;23441;50.856;6.076;2023-05-08T02:18:43;13.90;99.90
37594;DHT22;23441;50.856;6.076;2023-05-08T02:21:11;13.80;99.90
37594;DHT22;23441;50.856;6.076;2023-05-08T02:23:39;13.80;99.90
37594;DHT22;23441;50.856;6.076;2023-05-08T02:26:06;13.80;99.90
37594;DHT22;23441;50.856;6.076;2023-05-08T02:28:32;13.80;99.90
37594;DHT22;23441;50.856;6.076;2023-05-08T02:30:59;13.70;99.90
37594;DHT22;23441;50.856;6.076;2023-05-08T02:33:26;13.70;99.90
37594;DHT22;23441;50.856;6.076;2023-05-08T02:35:53;13.70;99.90
37594;DHT22;23441;50.856;6.076;2023-05-08T02:38:20;13.60;99.90
37594;DHT22;23441;50.856;6.076;2023-05-08T02:40:52;13.60;99.90
37594;DHT22;23441;50.856;6.076;2023-05-08T02:43:19;13.50;99.90
37594;DHT22;23441;50.856;6.076;2023-05-08T02:45:48;13.50;99.90
37594;DHT22;23441;50.856;6.076;2023-05-08T02:48:25;13.50;99.90
37594;DHT22;23441;50.856;6.076;2023-05-08T02:51:02;13.50;99.90
37594;DHT22;23441;50.856;6.076;2023-05-08T02:53:36;13.50;99.90
37594;DHT22;23441;50.856;6.076;2023-05-08T02:56:10;13.50;99.90
37594;DHT22;23441;50.856;6.076;2023-05-08T03:01:18;13.50;99.90
37594;DHT22;23441;50.856;6.076;2023-05-08T03:03:49;13.50;99.90
37594;DHT22;23441;50.856;6.076;2023-05-08T03:06:20;13.50;99.90
37594;DHT22;23441;50.856;6.076;2023-05-08T03:08:48;13.50;99.90
37594;DHT22;23441;50.856;6.076;2023-05-08T03:11:20;13.50;99.90
37594;DHT22;23441;50.856;6.076;2023-05-08T03:13:47;13.50;99.90
37594;DHT22;23441;50.856;6.076;2023-05-08T03:16:17;13.50;99.90
37594;DHT22;23441;50.856;6.076;2023-05-08T03:18:58;13.50;99.90
37594;DHT22;23441;50.856;6.076;2023-05-08T03:21:27;13.50;99.90
37594;DHT22;23441;50.856;6.076;2023-05-08T03:23:57;13.50;99.90
37594;DHT22;23441;50.856;6.076;2023-05-08T03:26:23;13.40;99.90
37594;DHT22;23441;50.856;6.076;2023-05-08T03:28:49;13.40;99.90
37594;DHT22;23441;50.856;6.076;2023-05-08T03:31:19;13.40;99.90
37594;DHT22;23441;50.856;6.076;2023-05-08T03:33:47;13.50;99.90
37594;DHT22;23441;50.856;6.076;2023-05-08T03:36:14;13.40;99.90
37594;DHT22;23441;50.856;6.076;2023-05-08T03:38:40;13.40;99.90
37594;DHT22;23441;50.856;6.076;2023-05-08T03:41:06;13.50;99.90
37594;DHT22;23441;50.856;6.076;2023-05-08T03:43:33;13.60;99.90
37594;DHT22;23441;50.856;6.076;2023-05-08T03:46:01;13.60;99.90
37594;DHT22;23441;50.856;6.076;2023-05-08T03:48:27;13.60;99.90
37594;DHT22;23441;50.856;6.076;2023-05-08T03:50:55;13.50;99.90
37594;DHT22;23441;50.856;6.076;2023-05-08T03:53:22;13.50;99.90
37594;DHT22;23441;50.856;6.076;2023-05-08T03:55:47;13.50;99.90
37594;DHT22;23441;50.856;6.076;2023-05-08T03:58:17;13.40;99.90
37594;DHT22;23441;50.856;6.076;2023-05-08T04:01:06;13.40;99.90
37594;DHT22;23441;50.856;6.076;2023-05-08T04:06:21;13.30;99.90
37594;DHT22;23441;50.856;6.076;2023-05-08T04:09:07;13.20;99.90
37594;DHT22;23441;50.856;6.076;2023-05-08T04:12:01;13.20;99.90
37594;DHT22;23441;50.856;6.076;2023-05-08T04:14:33;13.10;99.90
37594;DHT22;23441;50.856;6.076;2023-05-08T04:17:04;13.00;99.90
37594;DHT22;23441;50.856;6.076;2023-05-08T04:19:35;13.00;99.90
37594;DHT22;23441;50.856;6.076;2023-05-08T04:22:05;13.00;99.90
37594;DHT22;23441;50.856;6.076;2023-05-08T04:24:35;13.00;99.90
37594;DHT22;23441;50.856;6.076;2023-05-08T04:27:02;12.90;99.90
37594;DHT22;23441;50.856;6.076;2023-05-08T04:29:29;12.90;99.90
37594;DHT22;23441;50.856;6.076;2023-05-08T04:31:56;12.90;99.90
37594;DHT22;23441;50.856;6.076;2023-05-08T04:34:22;12.90;99.90
37594;DHT22;23441;50.856;6.076;2023-05-08T04:36:47;12.90;99.90
37594;DHT22;23441;50.856;6.076;2023-05-08T04:39:13;12.90;99.90
37594;DHT22;23441;50.856;6.076;2023-05-08T04:41:39;12.90;99.90
37594;DHT22;23441;50.856;6.076;2023-05-08T04:44:05;13.00;99.90
37594;DHT22;23441;50.856;6.076;2023-05-08T04:46:30;13.00;99.90
37594;DHT22;23441;50.856;6.076;2023-05-08T04:48:56;13.20;99.90
37594;DHT22;23441;50.856;6.076;2023-05-08T04:51:22;13.20;99.90
37594;DHT22;23441;50.856;6.076;2023-05-08T04:53:47;13.30;99.90
37594;DHT22;23441;50.856;6.076;2023-05-08T04:56:13;13.40;99.90
37594;DHT22;23441;50.856;6.076;2023-05-08T04:58:38;13.40;99.90
37594;DHT22;23441;50.856;6.076;2023-05-08T05:01:04;13.60;99.90
37594;DHT22;23441;50.856;6.076;2023-05-08T05:03:30;13.70;99.90
37594;DHT22;23441;50.856;6.076;2023-05-08T05:05:57;13.80;99.90
37594;DHT22;23441;50.856;6.076;2023-05-08T05:08:23;13.90;99.90
37594;DHT22;23441;50.856;6.076;2023-05-08T05:10:49;14.00;99.90
37594;DHT22;23441;50.856;6.076;2023-05-08T05:13:14;14.20;99.90
37594;DHT22;23441;50.856;6.076;2023-05-08T05:15:43;14.40;99.90
37594;DHT22;23441;50.856;6.076;2023-05-08T05:18:08;14.50;99.90
37594;DHT22;23441;50.856;6.076;2023-05-08T05:20:34;14.60;99.90
37594;DHT22;23441;50.856;6.076;2023-05-08T05:23:00;14.70;99.90
37594;DHT22;23441;50.856;6.076;2023-05-08T05:25:25;14.80;99.90
37594;DHT22;23441;50.856;6.076;2023-05-08T05:27:51;14.80;99.90
37594;DHT22;23441;50.856;6.076;2023-05-08T05:30:17;14.90;99.90
37594;DHT22;23441;50.856;6.076;2023-05-08T05:32:42;14.90;99.90
37594;DHT22;23441;50.856;6.076;2023-05-08T05:35:08;15.00;99.90
37594;DHT22;23441;50.856;6.076;2023-05-08T05:37:35;15.10;99.90
37594;DHT22;23441;50.856;6.076;2023-05-08T05:40:01;15.20;99.90
37594;DHT22;23441;50.856;6.076;2023-05-08T05:42:26;15.30;99.90
37594;DHT22;23441;50.856;6.076;2023-05-08T05:44:52;15.20;99.90
37594;DHT22;23441;50.856;6.076;2023-05-08T05:47:18;15.30;99.90
37594;DHT22;23441;50.856;6.076;2023-05-08T05:49:43;15.30;99.90
37594;DHT22;23441;50.856;6.076;2023-05-08T05:52:12;15.20;99.90
37594;DHT22;23441;50.856;6.076;2023-05-08T05:54:38;15.30;99.90
37594;DHT22;23441;50.856;6.076;2023-05-08T05:57:04;15.40;99.90
37594;DHT22;23441;50.856;6.076;2023-05-08T05:59:30;15.50;99.90
37594;DHT22;23441;50.856;6.076;2023-05-08T06:01:55;15.50;99.90
37594;DHT22;23441;50.856;6.076;2023-05-08T06:04:21;15.50;99.90
37594;DHT22;23441;50.856;6.076;2023-05-08T06:06:47;15.50;99.90
37594;DHT22;23441;50.856;6.076;2023-05-08T06:09:12;15.50;99.90
37594;DHT22;23441;50.856;6.076;2023-05-08T06:11:38;15.60;99.90
37594;DHT22;23441;50.856;6.076;2023-05-08T06:14:04;15.60;99.90
37594;DHT22;23441;50.856;6.076;2023-05-08T06:16:29;15.50;99.90
37594;DHT22;23441;50.856;6.076;2023-05-08T06:18:55;15.70;99.90
37594;DHT22;23441;50.856;6.076;2023-05-08T06:21:21;15.70;99.90
37594;DHT22;23441;50.856;6.076;2023-05-08T06:23:46;15.80;99.90
37594;DHT22;23441;50.856;6.076;2023-05-08T06:26:12;15.80;99.90
37594;DHT22;23441;50.856;6.076;2023-05-08T06:28:38;15.80;99.90
37594;DHT22;23441;50.856;6.076;2023-05-08T06:31:04;15.90;99.90
37594;DHT22;23441;50.856;6.076;2023-05-08T06:33:29;15.80;99.90
37594;DHT22;23441;50.856;6.076;2023-05-08T06:35:55;16.00;99.90
37594;DHT22;23441;50.856;6.076;2023-05-08T06:38:21;16.10;99.90
37594;DHT22;23441;50.856;6.076;2023-05-08T06:40:47;16.10;99.90
37594;DHT22;23441;50.856;6.076;2023-05-08T06:43:14;16.20;99.90
37594;DHT22;23441;50.856;6.076;2023-05-08T06:45:42;16.30;99.90
37594;DHT22;23441;50.856;6.076;2023-05-08T06:48:07;16.60;99.90
37594;DHT22;23441;50.856;6.076;2023-05-08T06:50:36;17.50;99.90
37594;DHT22;23441;50.856;6.076;2023-05-08T06:53:01;18.60;99.90
37594;DHT22;23441;50.856;6.076;2023-05-08T06:55:27;19.50;99.90
37594;DHT22;23441;50.856;6.076;2023-05-08T06:57:52;19.60;99.90
37594;DHT22;23441;50.856;6.076;2023-05-08T07:00:18;19.40;99.90
37594;DHT22;23441;50.856;6.076;2023-05-08T07:02:44;19.00;99.90
37594;DHT22;23441;50.856;6.076;2023-05-08T07:05:09;19.30;99.90
37594;DHT22;23441;50.856;6.076;2023-05-08T07:07:35;19.80;99.90
37594;DHT22;23441;50.856;6.076;2023-05-08T07:10:01;20.20;99.90
37594;DHT22;23441;50.856;6.076;2023-05-08T07:12:27;20.30;99.90
37594;DHT22;23441;50.856;6.076;2023-05-08T07:14:53;19.90;99.90
37594;DHT22;23441;50.856;6.076;2023-05-08T07:17:18;19.80;99.90
37594;DHT22;23441;50.856;6.076;2023-05-08T07:19:48;19.80;99.90
37594;DHT22;23441;50.856;6.076;2023-05-08T07:22:14;19.80;99.90
37594;DHT22;23441;50.856;6.076;2023-05-08T07:24:40;19.60;99.90
37594;DHT22;23441;50.856;6.076;2023-05-08T07:27:05;19.60;99.90
37594;DHT22;23441;50.856;6.076;2023-05-08T07:29:31;19.40;99.90
37594;DHT22;23441;50.856;6.076;2023-05-08T07:31:56;19.40;99.90
37594;DHT22;23441;50.856;6.076;2023-05-08T07:34:22;19.30;99.90
37594;DHT22;23441;50.856;6.076;2023-05-08T07:36:47;19.20;99.90
37594;DHT22;23441;50.856;6.076;2023-05-08T07:39:13;18.80;99.90
37594;DHT22;23441;50.856;6.076;2023-05-08T07:41:39;18.50;99.90
37594;DHT22;23441;50.856;6.076;2023-05-08T07:44:05;18.40;99.90
37594;DHT22;23441;50.856;6.076;2023-05-08T07:46:31;18.40;99.90
37594;DHT22;23441;50.856;6.076;2023-05-08T07:48:56;18.40;99.90
37594;DHT22;23441;50.856;6.076;2023-05-08T07:51:22;18.50;99.90
37594;DHT22;23441;50.856;6.076;2023-05-08T07:53:47;18.30;99.90
37594;DHT22;23441;50.856;6.076;2023-05-08T07:56:15;18.20;99.90
37594;DHT22;23441;50.856;6.076;2023-05-08T07:58:40;18.50;99.90
37594;DHT22;23441;50.856;6.076;2023-05-08T08:01:07;18.60;99.90
37594;DHT22;23441;50.856;6.076;2023-05-08T08:03:32;18.80;99.90
37594;DHT22;23441;50.856;6.076;2023-05-08T08:05:58;19.00;99.90
37594;DHT22;23441;50.856;6.076;2023-05-08T08:08:24;19.30;99.90
37594;DHT22;23441;50.856;6.076;2023-05-08T08:10:49;19.40;99.90
37594;DHT22;23441;50.856;6.076;2023-05-08T08:13:15;19.80;99.90
37594;DHT22;23441;50.856;6.076;2023-05-08T08:15:41;19.80;99.90
37594;DHT22;23441;50.856;6.076;2023-05-08T08:18:07;20.00;99.90
37594;DHT22;23441;50.856;6.076;2023-05-08T08:20:33;20.10;99.90
37594;DHT22;23441;50.856;6.076;2023-05-08T08:22:59;19.80;99.90
37594;DHT22;23441;50.856;6.076;2023-05-08T08:25:25;19.60;99.90
37594;DHT22;23441;50.856;6.076;2023-05-08T08:27:52;19.40;99.90
37594;DHT22;23441;50.856;6.076;2023-05-08T08:30:17;19.30;99.90
37594;DHT22;23441;50.856;6.076;2023-05-08T08:32:43;19.00;99.90
37594;DHT22;23441;50.856;6.076;2023-05-08T08:35:09;19.10;99.90
37594;DHT22;23441;50.856;6.076;2023-05-08T08:37:34;19.30;99.90
37594;DHT22;23441;50.856;6.076;2023-05-08T08:40:00;19.60;99.90
37594;DHT22;23441;50.856;6.076;2023-05-08T08:42:26;19.70;99.90
37594;DHT22;23441;50.856;6.076;2023-05-08T08:44:52;19.60;99.90
37594;DHT22;23441;50.856;6.076;2023-05-08T08:47:18;19.60;99.90
37594;DHT22;23441;50.856;6.076;2023-05-08T08:49:48;19.70;99.90
37594;DHT22;23441;50.856;6.076;2023-05-08T08:52:21;19.90;99.90
37594;DHT22;23441;50.856;6.076;2023-05-08T08:54:49;21.30;99.90
37594;DHT22;23441;50.856;6.076;2023-05-08T08:57:16;21.50;99.90
37594;DHT22;23441;50.856;6.076;2023-05-08T08:59:43;21.20;99.90
37594;DHT22;23441;50.856;6.076;2023-05-08T09:02:10;20.50;99.90
37594;DHT22;23441;50.856;6.076;2023-05-08T09:04:38;20.10;99.90
37594;DHT22;23441;50.856;6.076;2023-05-08T09:07:04;19.80;99.90
37594;DHT22;23441;50.856;6.076;2023-05-08T09:09:31;19.50;99.90
37594;DHT22;23441;50.856;6.076;2023-05-08T09:11:58;19.20;99.90
37594;DHT22;23441;50.856;6.076;2023-05-08T09:14:25;19.00;99.90
37594;DHT22;23441;50.856;6.076;2023-05-08T09:16:53;19.00;99.90
37594;DHT22;23441;50.856;6.076;2023-05-08T09:19:20;19.00;99.90
37594;DHT22;23441;50.856;6.076;2023-05-08T09:21:46;18.90;99.90
37594;DHT22;23441;50.856;6.076;2023-05-08T09:24:12;19.00;99.90
37594;DHT22;23441;50.856;6.076;2023-05-08T09:26:39;18.90;99.90
37594;DHT22;23441;50.856;6.076;2023-05-08T09:29:19;19.50;99.90
37594;DHT22;23441;50.856;6.076;2023-05-08T09:31:50;20.10;99.90
37594;DHT22;23441;50.856;6.076;2023-05-08T09:34:26;20.50;99.90
37594;DHT22;23441;50.856;6.076;2023-05-08T09:37:17;20.80;99.90
37594;DHT22;23441;50.856;6.076;2023-05-08T09:39:41;20.70;99.90
37594;DHT22;23441;50.856;6.076;2023-05-08T09:42:08;20.40;99.90
37594;DHT22;23441;50.856;6.076;2023-05-08T09:44:51;20.70;99.90
37594;DHT22;23441;50.856;6.076;2023-05-08T09:47:23;20.80;99.90
37594;DHT22;23441;50.856;6.076;2023-05-08T09:50:00;21.00;99.90
37594;DHT22;23441;50.856;6.076;2023-05-08T09:52:27;21.10;99.90
37594;DHT22;23441;50.856;6.076;2023-05-08T09:54:57;21.00;99.90
37594;DHT22;23441;50.856;6.076;2023-05-08T09:57:27;21.00;99.90
37594;DHT22;23441;50.856;6.076;2023-05-08T10:00:13;20.90;99.90
37594;DHT22;23441;50.856;6.076;2023-05-08T10:02:40;20.70;99.90
37594;DHT22;23441;50.856;6.076;2023-05-08T10:05:22;20.70;99.90
37594;DHT22;23441;50.856;6.076;2023-05-08T10:07:48;20.60;99.90
37594;DHT22;23441;50.856;6.076;2023-05-08T10:10:14;20.70;99.90
37594;DHT22;23441;50.856;6.076;2023-05-08T10:12:46;20.80;99.90
37594;DHT22;23441;50.856;6.076;2023-05-08T10:15:12;20.90;99.90
37594;DHT22;23441;50.856;6.076;2023-05-08T10:18:04;21.10;99.90
37594;DHT22;23441;50.856;6.076;2023-05-08T10:20:37;21.30;99.90
37594;DHT22;23441;50.856;6.076;2023-05-08T10:23:06;21.20;99.90
37594;DHT22;23441;50.856;6.076;2023-05-08T10:25:39;21.00;99.90
37594;DHT22;23441;50.856;6.076;2023-05-08T10:28:23;21.00;99.90
37594;DHT22;23441;50.856;6.076;2023-05-08T10:30:51;20.60;99.90
37594;DHT22;23441;50.856;6.076;2023-05-08T10:33:23;20.70;99.90
37594;DHT22;23441;50.856;6.076;2023-05-08T10:35:50;20.70;99.90
37594;DHT22;23441;50.856;6.076;2023-05-08T10:38:16;20.70;99.90
37594;DHT22;23441;50.856;6.076;2023-05-08T10:40:42;20.70;99.90
37594;DHT22;23441;50.856;6.076;2023-05-08T10:43:09;20.50;99.90
37594;DHT22;23441;50.856;6.076;2023-05-08T10:45:36;20.60;99.90
37594;DHT22;23441;50.856;6.076;2023-05-08T10:53:47;20.00;99.90
37594;DHT22;23441;50.856;6.076;2023-05-08T10:56:15;19.90;99.90
37594;DHT22;23441;50.856;6.076;2023-05-08T10:58:40;20.00;99.90
37594;DHT22;23441;50.856;6.076;2023-05-08T11:03:46;20.10;99.90
37594;DHT22;23441;50.856;6.076;2023-05-08T11:06:13;20.10;99.90
37594;DHT22;23441;50.856;6.076;2023-05-08T11:08:47;20.10;99.90
37594;DHT22;23441;50.856;6.076;2023-05-08T11:11:24;20.20;99.90
37594;DHT22;23441;50.856;6.076;2023-05-08T11:13:58;20.30;99.90
37594;DHT22;23441;50.856;6.076;2023-05-08T11:19:22;20.60;99.90
37594;DHT22;23441;50.856;6.076;2023-05-08T11:24:37;21.40;99.90
37594;DHT22;23441;50.856;6.076;2023-05-08T11:27:03;21.20;99.90
37594;DHT22;23441;50.856;6.076;2023-05-08T11:29:29;21.50;99.90
37594;DHT22;23441;50.856;6.076;2023-05-08T11:31:55;21.40;99.90
37594;DHT22;23441;50.856;6.076;2023-05-08T11:34:44;21.20;99.90
37594;DHT22;23441;50.856;6.076;2023-05-08T11:37:18;21.00;99.90
37594;DHT22;23441;50.856;6.076;2023-05-08T11:39:45;21.20;99.90
37594;DHT22;23441;50.856;6.076;2023-05-08T11:42:34;21.60;99.90
37594;DHT22;23441;50.856;6.076;2023-05-08T11:45:08;22.20;99.90
37594;DHT22;23441;50.856;6.076;2023-05-08T11:47:37;22.60;99.90
37594;DHT22;23441;50.856;6.076;2023-05-08T11:50:04;22.70;99.90
37594;DHT22;23441;50.856;6.076;2023-05-08T11:52:38;22.60;99.90
37594;DHT22;23441;50.856;6.076;2023-05-08T11:55:06;23.00;99.90
37594;DHT22;23441;50.856;6.076;2023-05-08T11:57:32;23.20;99.90
37594;DHT22;23441;50.856;6.076;2023-05-08T12:00:04;23.00;99.90
37594;DHT22;23441;50.856;6.076;2023-05-08T12:02:40;22.70;99.90
37594;DHT22;23441;50.856;6.076;2023-05-08T12:05:07;22.70;99.90
37594;DHT22;23441;50.856;6.076;2023-05-08T12:07:45;22.50;99.90
37594;DHT22;23441;50.856;6.076;2023-05-08T12:10:12;22.70;99.90
37594;DHT22;23441;50.856;6.076;2023-05-08T12:12:39;23.10;99.90
37594;DHT22;23441;50.856;6.076;2023-05-08T12:15:09;23.10;99.90
37594;DHT22;23441;50.856;6.076;2023-05-08T12:17:36;23.00;99.90
37594;DHT22;23441;50.856;6.076;2023-05-08T12:20:12;23.20;99.90
37594;DHT22;23441;50.856;6.076;2023-05-08T12:22:49;23.40;99.90
37594;DHT22;23441;50.856;6.076;2023-05-08T12:25:16;23.90;99.90
37594;DHT22;23441;50.856;6.076;2023-05-08T12:27:42;24.40;99.90
37594;DHT22;23441;50.856;6.076;2023-05-08T12:30:10;24.70;99.90
37594;DHT22;23441;50.856;6.076;2023-05-08T12:32:39;25.00;99.90
37594;DHT22;23441;50.856;6.076;2023-05-08T12:35:06;24.90;99.90
37594;DHT22;23441;50.856;6.076;2023-05-08T12:37:32;24.40;99.90
37594;DHT22;23441;50.856;6.076;2023-05-08T12:39:58;23.90;99.90
37594;DHT22;23441;50.856;6.076;2023-05-08T12:42:44;23.70;99.90
37594;DHT22;23441;50.856;6.076;2023-05-08T12:45:26;24.10;99.90
37594;DHT22;23441;50.856;6.076;2023-05-08T12:47:57;24.30;99.90
37594;DHT22;23441;50.856;6.076;2023-05-08T12:50:23;24.10;99.90
37594;DHT22;23441;50.856;6.076;2023-05-08T12:52:52;24.20;99.90
37594;DHT22;23441;50.856;6.076;2023-05-08T12:55:25;23.80;99.90
37594;DHT22;23441;50.856;6.076;2023-05-08T12:58:02;23.60;99.90
37594;DHT22;23441;50.856;6.076;2023-05-08T13:01:07;23.30;99.90
37594;DHT22;23441;50.856;6.076;2023-05-08T13:03:35;22.60;99.90
37594;DHT22;23441;50.856;6.076;2023-05-08T13:06:01;22.50;99.90
37594;DHT22;23441;50.856;6.076;2023-05-08T13:10:59;22.40;99.90
37594;DHT22;23441;50.856;6.076;2023-05-08T13:13:28;22.50;99.90
37594;DHT22;23441;50.856;6.076;2023-05-08T13:15:55;22.30;99.90
37594;DHT22;23441;50.856;6.076;2023-05-08T13:18:24;22.10;99.90
37594;DHT22;23441;50.856;6.076;2023-05-08T13:20:49;22.20;99.90
37594;DHT22;23441;50.856;6.076;2023-05-08T13:23:15;22.30;99.90
37594;DHT22;23441;50.856;6.076;2023-05-08T13:25:40;22.20;99.90
37594;DHT22;23441;50.856;6.076;2023-05-08T13:28:07;22.00;99.90
37594;DHT22;23441;50.856;6.076;2023-05-08T13:30:34;22.00;99.90
37594;DHT22;23441;50.856;6.076;2023-05-08T13:33:01;22.00;99.90
37594;DHT22;23441;50.856;6.076;2023-05-08T13:35:27;22.10;99.90
37594;DHT22;23441;50.856;6.076;2023-05-08T13:37:54;22.30;99.90
37594;DHT22;23441;50.856;6.076;2023-05-08T13:40:20;22.20;99.90
37594;DHT22;23441;50.856;6.076;2023-05-08T13:42:46;22.20;99.90
37594;DHT22;23441;50.856;6.076;2023-05-08T13:45:12;22.30;99.90
37594;DHT22;23441;50.856;6.076;2023-05-08T13:47:41;22.20;99.90
37594;DHT22;23441;50.856;6.076;2023-05-08T13:50:10;22.20;99.90
37594;DHT22;23441;50.856;6.076;2023-05-08T13:52:37;22.20;99.90
37594;DHT22;23441;50.856;6.076;2023-05-08T13:55:11;22.00;99.90
37594;DHT22;23441;50.856;6.076;2023-05-08T13:57:37;22.20;99.90
37594;DHT22;23441;50.856;6.076;2023-05-08T14:00:04;22.30;99.90
37594;DHT22;23441;50.856;6.076;2023-05-08T14:02:30;22.40;99.90
37594;DHT22;23441;50.856;6.076;2023-05-08T14:04:56;22.60;99.90
37594;DHT22;23441;50.856;6.076;2023-05-08T14:07:21;22.70;99.90
37594;DHT22;23441;50.856;6.076;2023-05-08T14:09:47;22.70;99.90
37594;DHT22;23441;50.856;6.076;2023-05-08T14:12:13;22.80;99.90
37594;DHT22;23441;50.856;6.076;2023-05-08T14:14:39;22.70;99.90
37594;DHT22;23441;50.856;6.076;2023-05-08T14:17:05;22.50;99.90
37594;DHT22;23441;50.856;6.076;2023-05-08T14:19:31;22.50;99.90
37594;DHT22;23441;50.856;6.076;2023-05-08T14:21:56;22.30;99.90
37594;DHT22;23441;50.856;6.076;2023-05-08T14:24:22;22.20;99.90
37594;DHT22;23441;50.856;6.076;2023-05-08T14:26:48;22.20;99.90
37594;DHT22;23441;50.856;6.076;2023-05-08T14:29:13;22.30;99.90
37594;DHT22;23441;50.856;6.076;2023-05-08T14:31:39;22.20;99.90
37594;DHT22;23441;50.856;6.076;2023-05-08T14:34:04;22.10;99.90
37594;DHT22;23441;50.856;6.076;2023-05-08T14:36:30;22.00;99.90
37594;DHT22;23441;50.856;6.076;2023-05-08T14:38:56;22.10;99.90
37594;DHT22;23441;50.856;6.076;2023-05-08T14:41:21;21.90;99.90
37594;DHT22;23441;50.856;6.076;2023-05-08T14:43:48;21.90;99.90
37594;DHT22;23441;50.856;6.076;2023-05-08T14:46:15;21.80;99.90
37594;DHT22;23441;50.856;6.076;2023-05-08T14:48:41;21.80;99.90
37594;DHT22;23441;50.856;6.076;2023-05-08T14:51:07;21.80;99.90
37594;DHT22;23441;50.856;6.076;2023-05-08T14:53:32;21.90;99.90
37594;DHT22;23441;50.856;6.076;2023-05-08T14:55:59;21.70;99.90
37594;DHT22;23441;50.856;6.076;2023-05-08T14:58:24;21.60;99.90
37594;DHT22;23441;50.856;6.076;2023-05-08T15:00:50;21.60;99.90
37594;DHT22;23441;50.856;6.076;2023-05-08T15:03:16;21.60;99.90
37594;DHT22;23441;50.856;6.076;2023-05-08T15:05:42;21.60;99.90
37594;DHT22;23441;50.856;6.076;2023-05-08T15:08:08;21.70;99.90
37594;DHT22;23441;50.856;6.076;2023-05-08T15:10:35;21.60;99.90
37594;DHT22;23441;50.856;6.076;2023-05-08T15:13:00;21.60;99.90
37594;DHT22;23441;50.856;6.076;2023-05-08T15:15:26;21.70;99.90
37594;DHT22;23441;50.856;6.076;2023-05-08T15:17:52;21.70;99.90
37594;DHT22;23441;50.856;6.076;2023-05-08T15:20:17;21.80;99.90
37594;DHT22;23441;50.856;6.076;2023-05-08T15:22:45;21.70;99.90
37594;DHT22;23441;50.856;6.076;2023-05-08T15:25:11;21.90;99.90
37594;DHT22;23441;50.856;6.076;2023-05-08T15:27:36;22.10;99.90
37594;DHT22;23441;50.856;6.076;2023-05-08T15:30:02;22.20;99.90
37594;DHT22;23441;50.856;6.076;2023-05-08T15:32:28;22.20;99.90
37594;DHT22;23441;50.856;6.076;2023-05-08T15:34:53;21.90;99.90
37594;DHT22;23441;50.856;6.076;2023-05-08T15:37:19;21.90;99.90
37594;DHT22;23441;50.856;6.076;2023-05-08T15:39:45;21.90;99.90
37594;DHT22;23441;50.856;6.076;2023-05-08T15:42:10;22.00;99.90
37594;DHT22;23441;50.856;6.076;2023-05-08T15:44:36;22.30;99.90
37594;DHT22;23441;50.856;6.076;2023-05-08T15:47:01;22.30;99.90
37594;DHT22;23441;50.856;6.076;2023-05-08T15:49:27;22.30;99.90
37594;DHT22;23441;50.856;6.076;2023-05-08T15:51:52;22.30;99.90
37594;DHT22;23441;50.856;6.076;2023-05-08T15:54:18;21.90;99.90
37594;DHT22;23441;50.856;6.076;2023-05-08T15:56:44;21.80;99.90
37594;DHT22;23441;50.856;6.076;2023-05-08T15:59:10;21.70;99.90
37594;DHT22;23441;50.856;6.076;2023-05-08T16:01:35;21.80;99.90
37594;DHT22;23441;50.856;6.076;2023-05-08T16:04:03;21.80;99.90
37594;DHT22;23441;50.856;6.076;2023-05-08T16:06:28;21.80;99.90
37594;DHT22;23441;50.856;6.076;2023-05-08T16:08:54;21.60;99.90
37594;DHT22;23441;50.856;6.076;2023-05-08T16:11:20;21.60;99.90
37594;DHT22;23441;50.856;6.076;2023-05-08T16:13:46;21.70;99.90
37594;DHT22;23441;50.856;6.076;2023-05-08T16:16:11;21.60;99.90